Time,TemperatureF,DewpointF,PressureIn,WindDirection,WindDirectionDegrees,WindSpeedMPH,WindSpeedGustMPH,Humidity,HourlyPrecipIn,Conditions,Clouds,dailyrainin,SolarRadiationWatts/m^2,SoftwareType,DateUTC
2013-09-19 00:02:00,72.0,62.0,29.99,South,187,2.0,5.0,72,-99.99,,,-99.99,0.000000,,2013-09-19 06:02:00,
2013-09-19 00:43:00,70.0,62.0,29.99,South,173,5.0,7.0,76,-99.99,,,-99.99,0.000000,,2013-09-19 06:43:00,
2013-09-19 01:42:00,70.0,62.0,29.99,SSE,157,8.0,10.0,74,-99.99,,,-99.99,0.000000,,2013-09-19 07:42:00,
2013-09-19 02:22:00,68.0,62.0,29.99,SSE,150,6.0,8.0,80,-99.99,,,-99.99,0.000000,,2013-09-19 08:22:00,
2013-09-19 02:42:00,68.0,62.0,29.99,SE,146,7.0,9.0,79,-99.99,,,-99.99,0.000000,,2013-09-19 08:42:00,
2013-09-19 03:21:00,68.0,61.0,29.99,SE,141,5.0,6.0,81,-99.99,,,-99.99,0.000000,,2013-09-19 09:21:00,
2013-09-19 03:43:00,68.0,61.0,29.99,SE,141,7.0,10.0,80,-99.99,,,-99.99,0.000000,,2013-09-19 09:43:00,
2013-09-19 04:43:00,66.0,61.0,29.99,South,178,5.0,7.0,83,-99.99,,,-99.99,0.000000,,2013-09-19 10:43:00,
2013-09-19 05:42:00,67.0,61.0,29.98,SSE,160,6.0,7.0,82,-99.99,,,-99.99,0.000000,,2013-09-19 11:42:00,
2013-09-19 05:53:00,66.0,61.0,29.98,SSE,158,6.0,7.0,83,-99.99,,,-99.99,0.000000,,2013-09-19 11:53:00,
2013-09-19 06:01:00,66.0,61.0,29.98,SSE,158,6.0,7.0,83,-99.99,,,-99.99,0.000000,,2013-09-19 12:01:00,
2013-09-19 06:43:00,66.0,61.0,29.98,SE,131,5.0,8.0,84,-99.99,,,-99.99,0.000000,,2013-09-19 12:43:00,
2013-09-19 07:42:00,63.0,61.0,30.00,ENE,76,2.0,5.0,92,-99.99,,,-99.99,10.460000,,2013-09-19 13:42:00,
2013-09-19 08:12:00,64.0,61.0,30.01,NW,310,3.0,5.0,90,-99.99,,,-99.99,82.980003,,2013-09-19 14:12:00,
2013-09-19 08:52:00,70.0,62.0,30.03,North,4,1.0,2.0,77,-99.99,,,-99.99,252.429993,,2013-09-19 14:52:00,
2013-09-19 09:01:00,70.0,62.0,30.03,North,4,1.0,2.0,77,-99.99,,,-99.99,252.429993,,2013-09-19 15:01:00,
2013-09-19 10:00:00,76.0,62.0,30.05,East,93,2.0,5.0,61,-99.99,,,-99.99,522.299988,,2013-09-19 16:00:00,
2013-09-19 10:42:00,76.0,62.0,30.05,East,93,2.0,5.0,61,-99.99,,,-99.99,522.299988,,2013-09-19 16:42:00,
2013-09-19 10:52:00,76.0,62.0,30.05,East,93,2.0,5.0,61,-99.99,,,-99.99,522.299988,,2013-09-19 16:52:00,
2013-09-19 12:42:00,79.0,61.0,30.03,NNW,330,2.0,8.0,54,-99.99,,,-99.99,702.210022,,2013-09-19 18:42:00,
2013-09-19 13:42:00,83.0,62.0,30.01,South,188,2.0,8.0,49,-99.99,,,-99.99,818.669983,,2013-09-19 19:42:00,
2013-09-19 14:42:00,84.0,60.0,29.98,NNW,348,2.0,7.0,45,-99.99,,,-99.99,779.619995,,2013-09-19 20:42:00,
2013-09-19 15:44:00,85.0,60.0,29.96,SSE,161,4.0,11.0,42,-99.99,,,-99.99,679.200012,,2013-09-19 21:44:00,
2013-09-19 16:14:00,86.0,59.0,29.95,SE,130,3.0,10.0,41,-99.99,,,-99.99,612.960022,,2013-09-19 22:14:00,
2013-09-19 16:24:00,86.0,60.0,29.94,SSE,157,6.0,10.0,41,-99.99,,,-99.99,575.299988,,2013-09-19 22:24:00,
2013-09-19 16:42:00,86.0,60.0,29.94,ESE,110,6.0,11.0,41,-99.99,,,-99.99,556.469971,,2013-09-19 22:42:00,
2013-09-19 17:12:00,87.0,59.0,29.94,ESE,110,2.0,7.0,40,-99.99,,,-99.99,551.590027,,2013-09-19 23:12:00,
2013-09-19 17:22:00,86.0,59.0,29.94,NE,56,7.0,11.0,40,-99.99,,,-99.99,273.350006,,2013-09-19 23:22:00,
2013-09-19 17:33:00,86.0,59.0,29.94,NE,56,7.0,11.0,40,-99.99,,,-99.99,273.350006,,2013-09-19 23:33:00,
2013-09-19 19:42:00,68.0,65.0,29.99,SW,220,10.0,15.0,90,-99.99,,,-99.99,0.700000,,2013-09-20 01:42:00,
2013-09-19 19:52:00,69.0,65.0,29.98,SW,221,9.0,14.0,87,-99.99,,,-99.99,0.000000,,2013-09-20 01:52:00,
2013-09-19 20:02:00,69.0,65.0,29.98,SW,221,9.0,14.0,87,-99.99,,,-99.99,0.000000,,2013-09-20 02:02:00,
2013-09-19 20:42:00,69.0,64.0,29.99,SW,235,4.0,7.0,85,-99.99,,,-99.99,0.000000,,2013-09-20 02:42:00,
2013-09-19 20:53:00,70.0,63.0,30.00,SW,227,5.0,6.0,78,-99.99,,,-99.99,0.000000,,2013-09-20 02:53:00,
2013-09-19 21:12:00,70.0,64.0,30.00,SSW,192,3.0,6.0,82,-99.99,,,-99.99,0.000000,,2013-09-20 03:12:00,
2013-09-19 21:45:00,70.0,64.0,30.00,South,185,3.0,5.0,79,-99.99,,,-99.99,0.000000,,2013-09-20 03:45:00,
2013-09-19 21:56:00,70.0,65.0,30.01,SE,138,4.0,5.0,82,-99.99,,,-99.99,0.000000,,2013-09-20 03:56:00,
2013-09-19 22:05:00,70.0,65.0,30.01,SE,138,4.0,5.0,82,-99.99,,,-99.99,0.000000,,2013-09-20 04:05:00,
2013-09-19 22:44:00,70.0,67.0,30.03,ESE,119,4.0,6.0,89,-99.99,,,-99.99,0.000000,,2013-09-20 04:44:00,
2013-09-19 23:13:00,69.0,66.0,30.02,ESE,114,6.0,8.0,90,-99.99,,,-99.99,0.000000,,2013-09-20 05:13:00,
2013-09-19 23:23:00,69.0,65.0,30.03,ESE,119,3.0,6.0,86,-99.99,,,-99.99,0.000000,,2013-09-20 05:23:00,
2013-09-19 23:43:00,69.0,65.0,30.04,WSW,244,4.0,8.0,87,-99.99,,,-99.99,0.000000,,2013-09-20 05:43:00,